createdAt,value
2022-08-07T05:02:22.667Z,15.90
2022-08-07T05:04:57.973Z,15.85
2022-08-07T05:07:36.969Z,15.88
2022-08-07T05:10:22.347Z,15.97
2022-08-07T05:12:58.444Z,16.00
2022-08-07T05:17:58.448Z,16.05
2022-08-07T05:20:34.796Z,16.21
2022-08-07T05:23:15.819Z,16.19
2022-08-07T05:26:11.125Z,16.25
2022-08-07T05:28:35.860Z,16.24
2022-08-07T05:31:04.803Z,16.26
2022-08-07T05:33:37.328Z,16.36
2022-08-07T05:36:08.131Z,16.45
2022-08-07T05:39:00.866Z,16.38
2022-08-07T05:42:01.176Z,16.47
2022-08-07T05:44:29.410Z,16.49
2022-08-07T05:47:00.310Z,16.58
2022-08-07T05:49:40.592Z,16.61
2022-08-07T05:52:11.565Z,16.51
2022-08-07T05:54:53.522Z,16.55
2022-08-07T05:57:29.954Z,16.52
2022-08-07T06:00:00.319Z,16.59
2022-08-07T06:02:32.331Z,16.65
2022-08-07T06:05:06.902Z,16.63
2022-08-07T06:08:13.317Z,16.64
2022-08-07T06:10:24.366Z,16.71
2022-08-07T06:12:52.186Z,16.77
2022-08-07T06:15:21.130Z,16.85
2022-08-07T06:17:53.537Z,16.98
2022-08-07T06:20:25.660Z,16.94
2022-08-07T06:23:46.033Z,16.93
2022-08-07T06:25:57.165Z,16.99
2022-08-07T06:28:27.161Z,17.12
2022-08-07T06:30:55.608Z,17.27
2022-08-07T06:33:23.798Z,17.23
2022-08-07T06:36:12.043Z,17.29
2022-08-07T06:38:51.620Z,17.32
2022-08-07T06:42:02.066Z,17.50
2022-08-07T06:44:22.549Z,17.49
2022-08-07T06:46:53.208Z,17.55
2022-08-07T06:49:21.319Z,17.65
2022-08-07T06:51:53.251Z,17.85
2022-08-07T06:55:32.814Z,17.90
2022-08-07T06:57:15.776Z,18.04
2022-08-07T07:00:13.246Z,18.13
2022-08-07T07:02:53.495Z,18.31
2022-08-07T07:06:02.014Z,18.39
2022-08-07T07:08:18.482Z,18.54
2022-08-07T07:10:56.529Z,18.63
2022-08-07T07:13:55.564Z,18.82
2022-08-07T07:16:27.544Z,18.93
2022-08-07T07:19:11.243Z,19.08
2022-08-07T07:22:04.671Z,19.36
2022-08-07T07:24:56.894Z,19.51
2022-08-07T07:27:35.630Z,19.65
2022-08-07T07:30:38.561Z,19.86
2022-08-07T07:33:11.437Z,19.95
2022-08-07T07:35:54.175Z,19.98
2022-08-07T07:38:31.746Z,19.88
2022-08-07T07:41:04.237Z,19.92
2022-08-07T07:44:14.262Z,20.05
2022-08-07T07:46:36.790Z,19.99
2022-08-07T07:50:29.784Z,19.75
2022-08-07T07:52:05.731Z,19.61
2022-08-07T07:54:35.869Z,19.71
2022-08-07T07:57:07.473Z,19.78
2022-08-07T07:59:52.604Z,19.77
2022-08-07T08:02:34.033Z,19.70
2022-08-07T08:05:05.296Z,19.63
2022-08-07T08:07:42.480Z,19.65
2022-08-07T08:10:37.931Z,19.59
2022-08-07T08:13:15.205Z,19.66
2022-08-07T08:15:58.526Z,19.68
2022-08-07T08:18:29.094Z,19.30
2022-08-07T08:21:01.390Z,19.47
2022-08-07T08:23:49.690Z,19.61
2022-08-07T08:26:37.287Z,19.90
2022-08-07T08:29:08.422Z,20.14
2022-08-07T08:32:17.258Z,20.17
2022-08-07T08:34:29.165Z,20.11
2022-08-07T08:36:58.677Z,20.46
2022-08-07T08:39:38.895Z,20.54
2022-08-07T08:42:15.049Z,20.37
2022-08-07T08:44:54.065Z,20.61
2022-08-07T08:47:27.624Z,20.81
2022-08-07T08:50:05.366Z,20.80
2022-08-07T08:52:40.871Z,20.89
2022-08-07T08:55:54.482Z,20.82
2022-08-07T08:58:24.725Z,20.53
2022-08-07T09:01:15.156Z,20.77
2022-08-07T09:03:56.754Z,20.75
2022-08-07T09:06:36.684Z,20.62
2022-08-07T09:09:21.061Z,20.96
2022-08-07T09:12:20.233Z,21.07
2022-08-07T09:16:23.873Z,21.38
2022-08-07T09:18:34.934Z,21.62
2022-08-07T09:21:13.913Z,21.57
2022-08-07T09:24:31.271Z,21.50
2022-08-07T09:26:58.593Z,21.56
2022-08-07T09:30:06.984Z,21.82
2022-08-07T09:32:48.180Z,21.58
2022-08-07T09:36:04.273Z,21.64
2022-08-07T09:38:32.431Z,21.68
2022-08-07T09:41:10.436Z,21.68
2022-08-07T09:44:05.498Z,21.71
2022-08-07T09:47:55.262Z,21.47
2022-08-07T09:50:01.671Z,21.81
2022-08-07T09:52:48.613Z,22.00
2022-08-07T09:55:29.296Z,21.95
2022-08-07T09:58:38.430Z,22.26
2022-08-07T10:01:51.131Z,22.41
2022-08-07T10:04:53.111Z,22.45
2022-08-07T10:07:52.946Z,22.45
2022-08-07T10:11:07.841Z,22.68
2022-08-07T10:14:01.785Z,22.78
2022-08-07T10:17:01.166Z,22.57
2022-08-07T10:19:54.453Z,22.27
2022-08-07T10:22:39.403Z,22.27
2022-08-07T10:25:23.062Z,22.68
2022-08-07T10:28:14.719Z,22.78
2022-08-07T10:30:53.710Z,22.75
2022-08-07T10:34:15.493Z,22.56
2022-08-07T10:36:36.373Z,22.72
2022-08-07T10:39:15.661Z,22.73
2022-08-07T10:42:00.281Z,22.83
2022-08-07T10:44:38.651Z,22.64
2022-08-07T10:47:27.035Z,22.93
2022-08-07T10:50:07.365Z,23.08
2022-08-07T10:52:48.623Z,22.91
2022-08-07T10:55:37.700Z,22.77
2022-08-07T10:58:24.934Z,22.78
2022-08-07T11:01:12.755Z,23.20
2022-08-07T11:03:55.175Z,23.10
2022-08-07T11:06:33.221Z,23.13
2022-08-07T11:09:04.683Z,23.26
2022-08-07T11:11:45.579Z,23.51
2022-08-07T11:14:43.718Z,23.67
2022-08-07T11:17:23.280Z,22.99
2022-08-07T11:19:56.015Z,23.29
2022-08-07T11:22:37.159Z,23.22
2022-08-07T11:25:18.500Z,23.18
2022-08-07T11:28:01.838Z,23.46
2022-08-07T11:30:43.792Z,23.21
2022-08-07T11:33:53.925Z,23.56
2022-08-07T11:36:20.482Z,23.62
2022-08-07T11:39:06.959Z,23.56
2022-08-07T11:42:02.224Z,23.84
2022-08-07T11:44:52.165Z,24.12
2022-08-07T11:47:56.367Z,24.16
2022-08-07T11:50:57.603Z,24.20
2022-08-07T11:53:43.304Z,23.97
2022-08-07T11:56:42.141Z,23.96
2022-08-07T12:00:11.748Z,23.72
2022-08-07T12:02:30.384Z,23.52
2022-08-07T12:05:15.398Z,23.59
2022-08-07T12:08:04.092Z,23.32
2022-08-07T12:10:41.737Z,23.56
2022-08-07T12:13:17.018Z,23.63
2022-08-07T12:16:06.533Z,24.05
2022-08-07T12:18:45.261Z,24.07
2022-08-07T12:22:37.904Z,23.77
2022-08-07T12:24:37.025Z,23.76
2022-08-07T12:27:14.927Z,24.07
2022-08-07T12:29:51.748Z,24.22
2022-08-07T12:32:25.313Z,23.72
2022-08-07T12:34:56.213Z,23.78
2022-08-07T12:38:09.355Z,23.82
2022-08-07T12:40:46.769Z,23.83
2022-08-07T12:43:10.510Z,23.59
2022-08-07T12:45:44.889Z,23.57
2022-08-07T12:48:51.857Z,23.55
2022-08-07T12:51:21.629Z,23.78
2022-08-07T12:54:02.675Z,23.81
2022-08-07T12:56:50.979Z,23.75
2022-08-07T12:59:32.995Z,23.53
2022-08-07T13:02:12.485Z,23.32
2022-08-07T13:05:01.555Z,23.24
2022-08-07T13:08:13.798Z,23.25
2022-08-07T13:11:04.593Z,23.16
2022-08-07T13:13:48.458Z,23.24
2022-08-07T13:16:28.127Z,23.42
2022-08-07T13:19:11.485Z,23.57
2022-08-07T13:22:01.974Z,23.44
2022-08-07T13:24:52.507Z,23.39
2022-08-07T13:28:11.007Z,23.45
2022-08-07T13:30:40.827Z,23.63
2022-08-07T13:33:46.111Z,23.45
2022-08-07T13:36:17.615Z,23.71
2022-08-07T13:38:54.458Z,23.76
2022-08-07T13:41:33.209Z,23.94
2022-08-07T13:44:05.248Z,23.70
2022-08-07T13:46:49.538Z,23.83
2022-08-07T13:50:34.508Z,23.60
2022-08-07T13:52:33.552Z,23.54
2022-08-07T13:55:00.782Z,23.78
2022-08-07T13:57:32.136Z,23.67
2022-08-07T14:00:26.299Z,23.56
2022-08-07T14:02:57.400Z,23.60
2022-08-07T14:05:37.154Z,23.64
2022-08-07T14:08:08.010Z,23.63
2022-08-07T14:10:42.325Z,23.54
2022-08-07T14:13:16.856Z,23.55
2022-08-07T14:15:57.146Z,23.62
2022-08-07T14:18:30.836Z,23.67
2022-08-07T14:21:08.332Z,23.54
2022-08-07T14:24:00.045Z,23.47
2022-08-07T14:26:37.013Z,23.59
2022-08-07T14:30:02.915Z,23.69
2022-08-07T14:31:56.395Z,23.45
2022-08-07T14:34:29.996Z,23.46
2022-08-07T14:37:02.969Z,23.47
2022-08-07T14:40:15.466Z,23.33
2022-08-07T14:42:26.044Z,23.48
2022-08-07T14:44:59.858Z,23.44
2022-08-07T14:47:48.606Z,23.43
2022-08-07T14:50:20.380Z,23.30
2022-08-07T14:52:50.184Z,23.25
2022-08-07T14:55:18.989Z,23.19
2022-08-07T14:57:54.843Z,23.37
2022-08-07T15:00:31.051Z,23.27
2022-08-07T15:03:15.665Z,23.24
2022-08-07T15:05:55.254Z,23.26
2022-08-07T15:08:34.812Z,23.20
2022-08-07T15:11:54.371Z,23.27
2022-08-07T15:14:12.893Z,23.26
2022-08-07T15:16:54.751Z,23.09
2022-08-07T15:20:23.601Z,23.12
2022-08-07T15:22:29.394Z,23.23
2022-08-07T15:25:17.115Z,23.15
2022-08-07T15:31:04.588Z,23.05
2022-08-07T15:42:44.165Z,22.90
2022-08-07T15:44:52.972Z,22.95
2022-08-07T15:47:59.990Z,22.89
2022-08-07T15:50:37.456Z,23.07
2022-08-07T15:53:11.318Z,23.00
2022-08-07T15:55:53.575Z,22.72
2022-08-07T15:58:37.737Z,22.83
2022-08-07T16:01:13.462Z,22.88
2022-08-07T16:03:54.320Z,22.90
2022-08-07T16:06:31.384Z,22.95
2022-08-07T16:09:07.707Z,23.06
2022-08-07T16:12:04.323Z,23.11
2022-08-07T16:14:59.091Z,23.01
2022-08-07T16:18:02.993Z,23.03
2022-08-07T16:20:43.106Z,23.08
2022-08-07T16:23:55.076Z,23.08
2022-08-07T16:26:59.181Z,22.86
2022-08-07T16:30:09.719Z,22.92
2022-08-07T16:32:39.718Z,22.75
2022-08-07T16:35:51.971Z,22.76
2022-08-07T16:38:44.461Z,22.76
2022-08-07T16:41:41.047Z,22.73
2022-08-07T16:44:55.434Z,22.55
2022-08-07T16:47:56.827Z,22.40
2022-08-07T16:50:48.432Z,22.39
2022-08-07T16:54:01.411Z,22.32
2022-08-07T16:56:37.458Z,22.22
2022-08-07T16:59:10.973Z,22.17
2022-08-07T17:01:56.586Z,22.14
2022-08-07T17:04:36.954Z,22.15
2022-08-07T17:07:28.438Z,22.05
2022-08-07T17:10:32.927Z,21.98
2022-08-07T17:13:41.813Z,21.93
2022-08-07T17:16:21.615Z,21.89
2022-08-07T17:19:03.100Z,21.87
2022-08-07T17:21:50.583Z,21.88
2022-08-07T17:24:32.058Z,21.87
2022-08-07T17:27:04.044Z,21.75
2022-08-07T17:30:14.323Z,21.68
2022-08-07T17:32:52.999Z,21.63
2022-08-07T17:35:49.681Z,21.57
2022-08-07T17:38:33.621Z,21.54
2022-08-07T17:42:02.295Z,21.52
2022-08-07T17:44:15.537Z,21.34
2022-08-07T17:47:08.348Z,21.30
2022-08-07T17:49:44.846Z,21.24
2022-08-07T17:52:30.425Z,21.18
2022-08-07T17:55:06.489Z,21.10
2022-08-07T17:57:58.572Z,21.04
2022-08-07T18:00:34.563Z,20.98
2022-08-07T18:03:25.409Z,20.96
2022-08-07T18:06:03.523Z,20.89
2022-08-07T18:09:01.204Z,20.88
2022-08-07T18:12:06.523Z,20.89
2022-08-07T18:14:32.383Z,20.79
2022-08-07T18:17:11.397Z,20.73
2022-08-07T18:21:09.845Z,20.70
2022-08-07T18:22:40.134Z,20.55
2022-08-07T18:25:19.208Z,20.46
2022-08-07T18:28:35.242Z,20.33
2022-08-07T18:31:09.544Z,20.19
2022-08-07T18:34:35.863Z,20.01
2022-08-07T18:38:55.947Z,19.86
2022-08-07T18:40:42.278Z,19.86
2022-08-07T18:43:14.923Z,19.71
2022-08-07T18:46:21.947Z,19.60
2022-08-07T18:50:06.783Z,19.62
2022-08-07T18:52:34.907Z,19.56
2022-08-07T18:54:52.721Z,19.36
2022-08-07T18:57:31.573Z,19.23
2022-08-07T19:00:32.372Z,19.07
2022-08-07T19:03:04.145Z,18.87
2022-08-07T19:06:02.051Z,18.72
2022-08-07T19:08:39.085Z,18.54
2022-08-07T19:11:36.102Z,18.35
2022-08-07T19:14:16.911Z,18.18
2022-08-07T19:17:04.782Z,18.08
2022-08-07T19:19:42.540Z,17.99
2022-08-07T19:22:30.588Z,17.92
2022-08-07T19:25:06.589Z,17.95
2022-08-07T19:28:56.784Z,17.92
2022-08-07T19:31:00.764Z,17.85
2022-08-07T19:33:34.895Z,17.74
2022-08-07T19:36:05.162Z,17.71
2022-08-07T19:38:53.454Z,17.72
2022-08-07T19:41:44.901Z,17.56
2022-08-07T19:44:21.262Z,17.48
2022-08-07T19:46:55.676Z,17.38
2022-08-07T19:49:57.679Z,17.32
2022-08-07T19:52:18.023Z,17.24
2022-08-07T19:54:55.697Z,17.19
2022-08-07T19:58:01.760Z,17.12
2022-08-07T20:00:28.980Z,17.00
2022-08-07T20:03:02.830Z,16.97
2022-08-07T20:05:59.834Z,16.92
2022-08-07T20:08:24.771Z,16.88
2022-08-07T20:11:01.819Z,16.74
2022-08-07T20:13:41.912Z,16.62
2022-08-07T20:16:31.949Z,16.46
2022-08-07T20:19:05.499Z,16.43
2022-08-07T20:21:41.592Z,16.44
2022-08-07T20:24:19.340Z,16.44
2022-08-07T20:26:52.244Z,16.41
2022-08-07T20:29:48.311Z,16.46
2022-08-07T20:32:22.915Z,16.33
2022-08-07T20:34:57.982Z,16.30
2022-08-07T20:37:33.918Z,16.21
2022-08-07T20:40:33.396Z,16.22
2022-08-07T20:42:57.813Z,16.21
2022-08-07T20:45:33.663Z,16.04
2022-08-07T20:48:28.576Z,16.01
2022-08-07T20:51:01.280Z,15.97
2022-08-07T20:54:04.784Z,15.94
2022-08-07T20:56:25.712Z,15.89
2022-08-07T20:58:58.644Z,15.83
2022-08-07T21:01:29.840Z,15.80
2022-08-07T21:04:22.687Z,15.69
2022-08-07T21:06:55.174Z,15.58
2022-08-07T21:09:51.532Z,15.55
2022-08-07T21:12:28.465Z,15.44
2022-08-07T21:15:00.911Z,15.34
2022-08-07T21:18:20.782Z,15.25
2022-08-07T21:20:29.571Z,15.14
2022-08-07T21:23:07.317Z,15.11
2022-08-07T21:25:56.605Z,15.06
2022-08-07T21:28:48.451Z,14.97
2022-08-07T21:31:31.643Z,15.00
2022-08-07T21:34:21.514Z,15.05
2022-08-07T21:37:01.715Z,15.06
2022-08-07T21:39:46.992Z,14.98
2022-08-07T21:42:42.246Z,14.91
2022-08-07T21:46:04.872Z,14.83
2022-08-07T21:48:28.452Z,14.76
2022-08-07T21:51:19.915Z,14.66
2022-08-07T21:54:01.587Z,14.54
2022-08-07T21:56:47.064Z,14.42
2022-08-07T21:59:29.689Z,14.36
2022-08-07T22:02:10.906Z,14.35
2022-08-07T22:04:51.420Z,14.26
2022-08-07T22:07:35.583Z,14.16
2022-08-07T22:10:20.069Z,14.22
2022-08-07T22:12:53.826Z,14.26
2022-08-07T22:16:41.225Z,14.17
2022-08-07T22:18:22.847Z,14.08
2022-08-07T22:20:55.726Z,14.18
2022-08-07T22:23:32.216Z,14.17
2022-08-07T22:26:06.904Z,14.22
2022-08-07T22:28:42.544Z,14.23
2022-08-07T22:31:45.419Z,14.21
2022-08-07T22:34:16.413Z,14.18
2022-08-07T22:36:52.903Z,14.20
2022-08-07T22:39:35.491Z,14.16
2022-08-07T22:42:25.949Z,14.06
2022-08-07T22:46:04.586Z,14.03
2022-08-07T22:48:31.596Z,14.00
2022-08-07T22:51:19.136Z,14.04
2022-08-07T22:54:05.180Z,14.03
2022-08-07T22:56:48.450Z,14.04
2022-08-07T22:59:41.397Z,13.98
